Siam — SGIP — position and weather

sailwx.info

Track history (hours):
 
Tides and Currents Weather Stations Pressure Air Temp Water Temp Dewpoint Dewpoint Depression Visibility Wind Speed Wind Dir Waves Ship Positions

Siam

Last reported at 2016-Sep-24 22:28 UTC. Time now 2016-Sep-25 00:19 UTC.
Position N 55°60' E 012°45'.

Length 22 m.

Type: Passenger vessel. MMSI: 265572320.

Date/timePositionNaut miles runAvg speedWind from/ knotsBaromVisibWave heightAir tempDewpointWater temp
2016-Sep-24 22:28N 55°60' E 012°45'0 0.0
2016-Sep-24 21:32N 55°60' E 012°45'0 0.0
2016-Sep-24 19:32N 55°60' E 012°45'0 0.0
2016-Sep-24 18:32N 55°60' E 012°45'0 0.0
2016-Sep-24 17:32N 55°60' E 012°45'0 0.0
2016-Sep-24 16:32N 55°60' E 012°45'0 0.0
2016-Sep-24 14:32N 55°60' E 012°45'3 1.7
2016-Sep-24 12:31N 55°59' E 012°38'3 1.7
2016-Sep-24 10:31N 55°60' E 012°45'0 0.0
2016-Sep-24 09:31N 55°60' E 012°45'0 0.0
2016-Sep-24 03:31N 55°60' E 012°45'0 0.0
2016-Sep-24 02:31N 55°60' E 012°45'0 0.0
2016-Sep-24 01:31N 55°60' E 012°45'0 0.0
2016-Sep-24 00:31N 55°60' E 012°45'0 0.0
2016-Sep-23 19:34N 55°60' E 012°45'0 0.0
2016-Sep-23 17:34N 55°60' E 012°45'0 0.0
2016-Sep-23 16:31N 55°60' E 012°45'0 0.0
2016-Sep-23 15:34N 55°60' E 012°45'0 0.0
2016-Sep-23 13:31N 55°60' E 012°45'4 1.0
2016-Sep-23 09:30N 55°56' E 012°42'2 0.6
2016-Sep-23 06:31N 55°58' E 012°42'2 1.2
2016-Sep-23 04:31N 55°60' E 012°45'0 0.0
2016-Sep-23 03:31N 55°60' E 012°45'0 0.0
2016-Sep-23 02:31N 55°60' E 012°45'0 0.0
2016-Sep-23 01:31N 55°60' E 012°45'0 0.0
2016-Sep-23 00:31N 55°60' E 012°45'0 0.0
2016-Sep-22 23:31N 55°60' E 012°45'0 0.0
2016-Sep-22 20:31N 55°60' E 012°45'0 0.0
2016-Sep-22 12:28N 55°60' E 012°45'0 0.0
2016-Sep-22 04:31N 55°60' E 012°45'0 0.0
2016-Sep-22 03:31N 55°60' E 012°45'0 0.0
2016-Sep-22 00:31N 55°60' E 012°45'0 0.0
2016-Sep-21 23:31N 55°60' E 012°45'0 0.0
2016-Sep-21 22:31N 55°60' E 012°45'0 0.0
2016-Sep-21 19:31N 55°60' E 012°45'0 0.0
2016-Sep-21 16:31N 55°60' E 012°45'0 0.0
2016-Sep-21 09:31N 55°60' E 012°45'0 0.0
2016-Sep-21 08:28N 55°60' E 012°45'0 0.0
2016-Sep-21 05:31N 55°60' E 012°45'0 0.0
2016-Sep-21 03:31N 55°60' E 012°45'0 0.0
2016-Sep-21 02:31N 55°60' E 012°45'0 0.0
2016-Sep-20 17:31N 55°60' E 012°45'0 0.0
2016-Sep-20 14:31N 55°60' E 012°45'0 0.0
2016-Sep-20 13:31N 55°60' E 012°45'0 0.0
2016-Sep-20 10:31N 55°60' E 012°45'0 0.0
2016-Sep-20 08:31N 55°60' E 012°45'0 0.0
2016-Sep-20 07:31N 55°60' E 012°45'0 0.0
2016-Sep-20 06:31N 55°60' E 012°45'0 0.0
2016-Sep-20 02:31N 55°60' E 012°45'0 0.0
2016-Sep-19 23:31N 55°60' E 012°45'0 0.0
2016-Sep-19 19:31N 55°60' E 012°45'0 0.0
2016-Sep-19 18:31N 55°60' E 012°45'0 0.0
2016-Sep-19 16:28N 55°60' E 012°45'0 0.0
2016-Sep-19 14:31N 55°60' E 012°45'0 0.0
2016-Sep-19 13:28N 55°60' E 012°45'0 0.0
2016-Sep-19 12:28N 55°60' E 012°45'0 0.0
2016-Sep-19 11:31N 55°60' E 012°45'0 0.0
2016-Sep-19 09:31N 55°60' E 012°45'0 0.0
2016-Sep-19 07:31N 55°60' E 012°45'0 0.0
2016-Sep-19 06:28N 55°60' E 012°45'0 0.0
2016-Sep-19 03:31N 55°60' E 012°45'0 0.0
2016-Sep-19 02:31N 55°60' E 012°45'0 0.0
2016-Sep-19 00:31N 55°60' E 012°45'0 0.0
2016-Sep-18 19:31N 55°60' E 012°45'0 0.0
2016-Sep-18 15:31N 55°60' E 012°45'0 0.0
2016-Sep-18 14:31N 55°60' E 012°45'0 0.0
2016-Sep-18 10:31N 55°60' E 012°45'4 3.8
2016-Sep-18 09:33N 55°56' E 012°42'4 0.5
2016-Sep-18 02:31N 55°60' E 012°45'0 0.0
2016-Sep-18 01:31N 55°60' E 012°45'0 0.0
2016-Sep-18 00:31N 55°60' E 012°45'0 0.0
2016-Sep-17 22:31N 55°60' E 012°45'0 0.0
2016-Sep-17 21:31N 55°60' E 012°45'0 0.0
2016-Sep-17 20:25N 55°60' E 012°45'0 0.0
2016-Sep-17 19:16N 55°60' E 012°45'4 0.7
2016-Sep-17 13:32N 55°56' E 012°42'0 0.4
2016-Sep-17 12:32N 55°55' E 012°42'4 2.1
2016-Sep-17 10:31N 55°60' E 012°45'3 3.5
2016-Sep-17 09:33N 55°56' E 012°43'1 0.8
2016-Sep-17 08:33N 55°55' E 012°43'0 0.1
2016-Sep-17 07:33N 55°55' E 012°43'4 2.1
2016-Sep-17 05:32N 55°60' E 012°45'0 0.0
2016-Sep-17 04:32N 55°60' E 012°45'0 0.0
2016-Sep-17 00:32N 55°60' E 012°45'4 0.6
2016-Sep-16 17:32N 55°56' E 012°41'1 0.7
2016-Sep-16 15:32N 55°55' E 012°43'4 1.5
2016-Sep-16 12:33N 55°60' E 012°45'0 0.0
2016-Sep-16 09:33N 55°60' E 012°45'0 0.0
2016-Sep-16 07:33N 55°60' E 012°45'0 0.0
2016-Sep-16 03:33N 55°60' E 012°45'0 0.0
2016-Sep-16 02:34N 55°60' E 012°45'0 0.0
2016-Sep-16 00:34N 55°60' E 012°45'0 0.0
2016-Sep-15 22:34N 55°60' E 012°45'0 0.0
2016-Sep-15 21:31N 55°60' E 012°45'0 0.0
2016-Sep-15 20:28N 55°60' E 012°45'0 0.0
2016-Sep-15 18:31N 55°60' E 012°45'0 0.0
2016-Sep-15 12:33N 55°60' E 012°45'0 0.0
2016-Sep-15 11:30N 55°60' E 012°45'0 0.0
2016-Sep-15 04:33N 55°60' E 012°45'0 0.0
2016-Sep-15 03:33N 55°60' E 012°45'0 0.0
2016-Sep-15 01:33N 55°60' E 012°45'0 0.0
2016-Sep-14 22:33N 55°60' E 012°45'  
Track history (hours):
 
Tides and Currents Weather Stations Pressure Air Temp Water Temp Dewpoint Dewpoint Depression Visibility Wind Speed Wind Dir Waves Ship Positions

Siam

Last reported at 2016-Sep-24 22:28 UTC. Time now 2016-Sep-25 00:19 UTC.
Position N 55°60' E 012°45'.

Length 22 m.

Type: Passenger vessel. MMSI: 265572320.

Date/timePositionNaut miles runAvg speedWind from/ knotsBaromVisibWave heightAir tempDewpointWater temp
2016-Sep-24 22:28N 55°60' E 012°45'0 0.0
2016-Sep-24 21:32N 55°60' E 012°45'0 0.0
2016-Sep-24 19:32N 55°60' E 012°45'0 0.0
2016-Sep-24 18:32N 55°60' E 012°45'0 0.0
2016-Sep-24 17:32N 55°60' E 012°45'0 0.0
2016-Sep-24 16:32N 55°60' E 012°45'0 0.0
2016-Sep-24 14:32N 55°60' E 012°45'3 1.7
2016-Sep-24 12:31N 55°59' E 012°38'3 1.7
2016-Sep-24 10:31N 55°60' E 012°45'0 0.0
2016-Sep-24 09:31N 55°60' E 012°45'0 0.0
2016-Sep-24 03:31N 55°60' E 012°45'0 0.0
2016-Sep-24 02:31N 55°60' E 012°45'0 0.0
2016-Sep-24 01:31N 55°60' E 012°45'0 0.0
2016-Sep-24 00:31N 55°60' E 012°45'0 0.0
2016-Sep-23 19:34N 55°60' E 012°45'0 0.0
2016-Sep-23 17:34N 55°60' E 012°45'0 0.0
2016-Sep-23 16:31N 55°60' E 012°45'0 0.0
2016-Sep-23 15:34N 55°60' E 012°45'0 0.0
2016-Sep-23 13:31N 55°60' E 012°45'4 1.0
2016-Sep-23 09:30N 55°56' E 012°42'2 0.6
2016-Sep-23 06:31N 55°58' E 012°42'2 1.2
2016-Sep-23 04:31N 55°60' E 012°45'0 0.0
2016-Sep-23 03:31N 55°60' E 012°45'0 0.0
2016-Sep-23 02:31N 55°60' E 012°45'0 0.0
2016-Sep-23 01:31N 55°60' E 012°45'0 0.0
2016-Sep-23 00:31N 55°60' E 012°45'0 0.0
2016-Sep-22 23:31N 55°60' E 012°45'0 0.0
2016-Sep-22 20:31N 55°60' E 012°45'0 0.0
2016-Sep-22 12:28N 55°60' E 012°45'0 0.0
2016-Sep-22 04:31N 55°60' E 012°45'0 0.0
2016-Sep-22 03:31N 55°60' E 012°45'0 0.0
2016-Sep-22 00:31N 55°60' E 012°45'0 0.0
2016-Sep-21 23:31N 55°60' E 012°45'0 0.0
2016-Sep-21 22:31N 55°60' E 012°45'0 0.0
2016-Sep-21 19:31N 55°60' E 012°45'0 0.0
2016-Sep-21 16:31N 55°60' E 012°45'0 0.0
2016-Sep-21 09:31N 55°60' E 012°45'0 0.0
2016-Sep-21 08:28N 55°60' E 012°45'0 0.0
2016-Sep-21 05:31N 55°60' E 012°45'0 0.0
2016-Sep-21 03:31N 55°60' E 012°45'0 0.0
2016-Sep-21 02:31N 55°60' E 012°45'0 0.0
2016-Sep-20 17:31N 55°60' E 012°45'0 0.0
2016-Sep-20 14:31N 55°60' E 012°45'0 0.0
2016-Sep-20 13:31N 55°60' E 012°45'0 0.0
2016-Sep-20 10:31N 55°60' E 012°45'0 0.0
2016-Sep-20 08:31N 55°60' E 012°45'0 0.0
2016-Sep-20 07:31N 55°60' E 012°45'0 0.0
2016-Sep-20 06:31N 55°60' E 012°45'0 0.0
2016-Sep-20 02:31N 55°60' E 012°45'0 0.0
2016-Sep-19 23:31N 55°60' E 012°45'0 0.0
2016-Sep-19 19:31N 55°60' E 012°45'0 0.0
2016-Sep-19 18:31N 55°60' E 012°45'0 0.0
2016-Sep-19 16:28N 55°60' E 012°45'0 0.0
2016-Sep-19 14:31N 55°60' E 012°45'0 0.0
2016-Sep-19 13:28N 55°60' E 012°45'0 0.0
2016-Sep-19 12:28N 55°60' E 012°45'0 0.0
2016-Sep-19 11:31N 55°60' E 012°45'0 0.0
2016-Sep-19 09:31N 55°60' E 012°45'0 0.0
2016-Sep-19 07:31N 55°60' E 012°45'0 0.0
2016-Sep-19 06:28N 55°60' E 012°45'0 0.0
2016-Sep-19 03:31N 55°60' E 012°45'0 0.0
2016-Sep-19 02:31N 55°60' E 012°45'0 0.0
2016-Sep-19 00:31N 55°60' E 012°45'0 0.0
2016-Sep-18 19:31N 55°60' E 012°45'0 0.0
2016-Sep-18 15:31N 55°60' E 012°45'0 0.0
2016-Sep-18 14:31N 55°60' E 012°45'0 0.0
2016-Sep-18 10:31N 55°60' E 012°45'4 3.8
2016-Sep-18 09:33N 55°56' E 012°42'4 0.5
2016-Sep-18 02:31N 55°60' E 012°45'0 0.0
2016-Sep-18 01:31N 55°60' E 012°45'0 0.0
2016-Sep-18 00:31N 55°60' E 012°45'0 0.0
2016-Sep-17 22:31N 55°60' E 012°45'0 0.0
2016-Sep-17 21:31N 55°60' E 012°45'0 0.0
2016-Sep-17 20:25N 55°60' E 012°45'0 0.0
2016-Sep-17 19:16N 55°60' E 012°45'4 0.7
2016-Sep-17 13:32N 55°56' E 012°42'0 0.4
2016-Sep-17 12:32N 55°55' E 012°42'4 2.1
2016-Sep-17 10:31N 55°60' E 012°45'3 3.5
2016-Sep-17 09:33N 55°56' E 012°43'1 0.8
2016-Sep-17 08:33N 55°55' E 012°43'0 0.1
2016-Sep-17 07:33N 55°55' E 012°43'4 2.1
2016-Sep-17 05:32N 55°60' E 012°45'0 0.0
2016-Sep-17 04:32N 55°60' E 012°45'0 0.0
2016-Sep-17 00:32N 55°60' E 012°45'4 0.6
2016-Sep-16 17:32N 55°56' E 012°41'1 0.7
2016-Sep-16 15:32N 55°55' E 012°43'4 1.5
2016-Sep-16 12:33N 55°60' E 012°45'0 0.0
2016-Sep-16 09:33N 55°60' E 012°45'0 0.0
2016-Sep-16 07:33N 55°60' E 012°45'0 0.0
2016-Sep-16 03:33N 55°60' E 012°45'0 0.0
2016-Sep-16 02:34N 55°60' E 012°45'0 0.0
2016-Sep-16 00:34N 55°60' E 012°45'0 0.0
2016-Sep-15 22:34N 55°60' E 012°45'0 0.0
2016-Sep-15 21:31N 55°60' E 012°45'0 0.0
2016-Sep-15 20:28N 55°60' E 012°45'0 0.0
2016-Sep-15 18:31N 55°60' E 012°45'0 0.0
2016-Sep-15 12:33N 55°60' E 012°45'0 0.0
2016-Sep-15 11:30N 55°60' E 012°45'0 0.0
2016-Sep-15 04:33N 55°60' E 012°45'0 0.0
2016-Sep-15 03:33N 55°60' E 012°45'0 0.0
2016-Sep-15 01:33N 55°60' E 012°45'0 0.0
2016-Sep-14 22:33N 55°60' E 012°45'  

Dump ship's entire track history